sensor_id;sensor_type;location;lat;lon;timestamp;pressure;altitude;pressure_sealevel;temperature
27826;BMP280;15077;49.704;9.908;2024-02-26T00:01:27;96413.34;;;9.55
27826;BMP280;15077;49.704;9.908;2024-02-26T00:03:53;96406.91;;;9.51
27826;BMP280;15077;49.704;9.908;2024-02-26T00:06:20;96409.53;;;9.49
27826;BMP280;15077;49.704;9.908;2024-02-26T00:08:46;96401.28;;;9.46
27826;BMP280;15077;49.704;9.908;2024-02-26T00:11:12;96394.63;;;9.45
27826;BMP280;15077;49.704;9.908;2024-02-26T00:13:38;96392.19;;;9.43
27826;BMP280;15077;49.704;9.908;2024-02-26T00:16:04;96386.22;;;9.44
27826;BMP280;15077;49.704;9.908;2024-02-26T00:18:30;96392.09;;;9.45
27826;BMP280;15077;49.704;9.908;2024-02-26T00:20:56;96398.88;;;9.44
27826;BMP280;15077;49.704;9.908;2024-02-26T00:23:22;96393.00;;;9.44
27826;BMP280;15077;49.704;9.908;2024-02-26T00:25:49;96392.09;;;9.45
27826;BMP280;15077;49.704;9.908;2024-02-26T00:28:15;96392.09;;;9.45
27826;BMP280;15077;49.704;9.908;2024-02-26T00:30:40;96387.84;;;9.45
27826;BMP280;15077;49.704;9.908;2024-02-26T00:33:06;96390.47;;;9.44
27826;BMP280;15077;49.704;9.908;2024-02-26T00:35:31;96390.47;;;9.44
27826;BMP280;15077;49.704;9.908;2024-02-26T00:37:57;96385.41;;;9.44
27826;BMP280;15077;49.704;9.908;2024-02-26T00:40:24;96380.38;;;9.44
27826;BMP280;15077;49.704;9.908;2024-02-26T00:42:50;96385.41;;;9.44
27826;BMP280;15077;49.704;9.908;2024-02-26T00:45:15;96383.78;;;9.43
27826;BMP280;15077;49.704;9.908;2024-02-26T00:47:42;96377.94;;;9.42
27826;BMP280;15077;49.704;9.908;2024-02-26T00:50:08;96381.34;;;9.41
27826;BMP280;15077;49.704;9.908;2024-02-26T00:52:34;96381.34;;;9.41
27826;BMP280;15077;49.704;9.908;2024-02-26T00:55:00;96383.88;;;9.41
27826;BMP280;15077;49.704;9.908;2024-02-26T00:57:25;96388.03;;;9.42
27826;BMP280;15077;49.704;9.908;2024-02-26T00:59:51;96383.00;;;9.42
27826;BMP280;15077;49.704;9.908;2024-02-26T01:02:16;96389.78;;;9.42
27826;BMP280;15077;49.704;9.908;2024-02-26T01:04:42;96389.78;;;9.42
27826;BMP280;15077;49.704;9.908;2024-02-26T01:07:08;96392.41;;;9.40
27826;BMP280;15077;49.704;9.908;2024-02-26T01:09:34;96384.81;;;9.40
27826;BMP280;15077;49.704;9.908;2024-02-26T01:12:00;96394.00;;;9.41
27826;BMP280;15077;49.704;9.908;2024-02-26T01:14:25;96386.50;;;9.40
27826;BMP280;15077;49.704;9.908;2024-02-26T01:16:51;96381.44;;;9.40
27826;BMP280;15077;49.704;9.908;2024-02-26T01:19:17;96374.78;;;9.39
27826;BMP280;15077;49.704;9.908;2024-02-26T01:21:42;96386.50;;;9.40
27826;BMP280;15077;49.704;9.908;2024-02-26T01:24:08;96386.50;;;9.40
27826;BMP280;15077;49.704;9.908;2024-02-26T01:26:33;96380.56;;;9.41
27826;BMP280;15077;49.704;9.908;2024-02-26T01:28:59;96380.56;;;9.41
27826;BMP280;15077;49.704;9.908;2024-02-26T01:31:25;96375.50;;;9.41
27826;BMP280;15077;49.704;9.908;2024-02-26T01:33:50;96382.19;;;9.42
27826;BMP280;15077;49.704;9.908;2024-02-26T01:36:16;96374.59;;;9.42
27826;BMP280;15077;49.704;9.908;2024-02-26T01:38:41;96376.22;;;9.43
27826;BMP280;15077;49.704;9.908;2024-02-26T01:41:07;96383.78;;;9.43
27826;BMP280;15077;49.704;9.908;2024-02-26T01:43:33;96387.16;;;9.43
27826;BMP280;15077;49.704;9.908;2024-02-26T01:45:58;96378.63;;;9.44
27826;BMP280;15077;49.704;9.908;2024-02-26T01:48:24;96383.59;;;9.46
27826;BMP280;15077;49.704;9.908;2024-02-26T01:50:51;96385.22;;;9.47
27826;BMP280;15077;49.704;9.908;2024-02-26T01:53:18;96389.47;;;9.46
27826;BMP280;15077;49.704;9.908;2024-02-26T01:55:45;96383.50;;;9.47
27826;BMP280;15077;49.704;9.908;2024-02-26T01:58:11;96391.00;;;9.49
27826;BMP280;15077;49.704;9.908;2024-02-26T02:00:37;96396.78;;;9.51
27826;BMP280;15077;49.704;9.908;2024-02-26T02:03:03;96382.50;;;9.50
27826;BMP280;15077;49.704;9.908;2024-02-26T02:05:30;96388.28;;;9.52
27826;BMP280;15077;49.704;9.908;2024-02-26T02:07:56;96380.69;;;9.52
27826;BMP280;15077;49.704;9.908;2024-02-26T02:10:22;96391.53;;;9.54
27826;BMP280;15077;49.704;9.908;2024-02-26T02:12:49;96388.28;;;9.52
27826;BMP280;15077;49.704;9.908;2024-02-26T02:15:15;96389.81;;;9.54
27826;BMP280;15077;49.704;9.908;2024-02-26T02:17:40;96383.03;;;9.55
27826;BMP280;15077;49.704;9.908;2024-02-26T02:20:14;96389.72;;;9.56
27826;BMP280;15077;49.704;9.908;2024-02-26T02:22:40;96383.84;;;9.55
27826;BMP280;15077;49.704;9.908;2024-02-26T02:25:06;96389.72;;;9.56
27826;BMP280;15077;49.704;9.908;2024-02-26T02:27:32;96387.19;;;9.56
27826;BMP280;15077;49.704;9.908;2024-02-26T02:29:57;96386.28;;;9.57
27826;BMP280;15077;49.704;9.908;2024-02-26T02:32:24;96376.88;;;9.59
27826;BMP280;15077;49.704;9.908;2024-02-26T02:34:50;96381.03;;;9.60
27826;BMP280;15077;49.704;9.908;2024-02-26T02:37:16;96383.47;;;9.61
27826;BMP280;15077;49.704;9.908;2024-02-26T02:39:41;96384.25;;;9.62
27826;BMP280;15077;49.704;9.908;2024-02-26T02:42:08;96377.56;;;9.61
27826;BMP280;15077;49.704;9.908;2024-02-26T02:44:34;96380.84;;;9.63
27826;BMP280;15077;49.704;9.908;2024-02-26T02:47:00;96380.00;;;9.62
27826;BMP280;15077;49.704;9.908;2024-02-26T02:49:25;96373.25;;;9.63
27826;BMP280;15077;49.704;9.908;2024-02-26T02:51:51;96378.31;;;9.63
27826;BMP280;15077;49.704;9.908;2024-02-26T02:54:18;96370.72;;;9.63
27826;BMP280;15077;49.704;9.908;2024-02-26T02:56:44;96373.25;;;9.63
27826;BMP280;15077;49.704;9.908;2024-02-26T02:59:10;96360.59;;;9.63
27826;BMP280;15077;49.704;9.908;2024-02-26T03:01:35;96363.13;;;9.63
27826;BMP280;15077;49.704;9.908;2024-02-26T03:04:01;96359.78;;;9.62
27826;BMP280;15077;49.704;9.908;2024-02-26T03:06:26;96365.66;;;9.63
27826;BMP280;15077;49.704;9.908;2024-02-26T03:08:54;96363.84;;;9.65
27826;BMP280;15077;49.704;9.908;2024-02-26T03:11:20;96357.16;;;9.64
27826;BMP280;15077;49.704;9.908;2024-02-26T03:13:46;96359.66;;;9.64
27826;BMP280;15077;49.704;9.908;2024-02-26T03:16:11;96357.97;;;9.64
27826;BMP280;15077;49.704;9.908;2024-02-26T03:18:40;96364.63;;;9.65
27826;BMP280;15077;49.704;9.908;2024-02-26T03:21:06;96357.16;;;9.64
27826;BMP280;15077;49.704;9.908;2024-02-26T03:23:32;96367.25;;;9.64
27826;BMP280;15077;49.704;9.908;2024-02-26T03:26:03;96361.41;;;9.63
27826;BMP280;15077;49.704;9.908;2024-02-26T03:28:29;96363.03;;;9.64
27826;BMP280;15077;49.704;9.908;2024-02-26T03:30:55;96357.16;;;9.64
27826;BMP280;15077;49.704;9.908;2024-02-26T03:33:20;96354.53;;;9.65
27826;BMP280;15077;49.704;9.908;2024-02-26T03:35:46;96347.84;;;9.64
27826;BMP280;15077;49.704;9.908;2024-02-26T03:38:11;96353.72;;;9.65
27826;BMP280;15077;49.704;9.908;2024-02-26T03:40:37;96368.91;;;9.65
27826;BMP280;15077;49.704;9.908;2024-02-26T03:43:03;96383.56;;;9.60
27826;BMP280;15077;49.704;9.908;2024-02-26T03:45:30;96377.97;;;9.55
27826;BMP280;15077;49.704;9.908;2024-02-26T03:47:55;96370.38;;;9.55
27826;BMP280;15077;49.704;9.908;2024-02-26T03:50:21;96383.03;;;9.55
27826;BMP280;15077;49.704;9.908;2024-02-26T03:52:47;96389.91;;;9.53
27826;BMP280;15077;49.704;9.908;2024-02-26T03:55:12;96392.53;;;9.51
27826;BMP280;15077;49.704;9.908;2024-02-26T03:57:38;96395.06;;;9.51
27826;BMP280;15077;49.704;9.908;2024-02-26T04:00:04;96389.91;;;9.53
27826;BMP280;15077;49.704;9.908;2024-02-26T04:02:29;96384.84;;;9.53
27826;BMP280;15077;49.704;9.908;2024-02-26T04:04:55;96398.19;;;9.55
27826;BMP280;15077;49.704;9.908;2024-02-26T04:07:21;96394.97;;;9.53
27826;BMP280;15077;49.704;9.908;2024-02-26T04:09:46;96393.31;;;9.52
27826;BMP280;15077;49.704;9.908;2024-02-26T04:12:12;96390.69;;;9.53
27826;BMP280;15077;49.704;9.908;2024-02-26T04:14:39;96385.66;;;9.53
27826;BMP280;15077;49.704;9.908;2024-02-26T04:17:05;96381.63;;;9.51
27826;BMP280;15077;49.704;9.908;2024-02-26T04:19:30;96388.28;;;9.52
27826;BMP280;15077;49.704;9.908;2024-02-26T04:21:56;96393.31;;;9.52
27826;BMP280;15077;49.704;9.908;2024-02-26T04:24:22;96396.59;;;9.54
27826;BMP280;15077;49.704;9.908;2024-02-26T04:26:47;96394.75;;;9.56
27826;BMP280;15077;49.704;9.908;2024-02-26T04:29:15;96394.75;;;9.56
27826;BMP280;15077;49.704;9.908;2024-02-26T04:31:40;96396.19;;;9.60
27826;BMP280;15077;49.704;9.908;2024-02-26T04:34:08;96401.25;;;9.60
27826;BMP280;15077;49.704;9.908;2024-02-26T04:36:33;96399.44;;;9.62
27826;BMP280;15077;49.704;9.908;2024-02-26T04:38:59;96399.34;;;9.63
27826;BMP280;15077;49.704;9.908;2024-02-26T04:41:24;96399.25;;;9.65
27826;BMP280;15077;49.704;9.908;2024-02-26T04:43:50;96397.41;;;9.66
27826;BMP280;15077;49.704;9.908;2024-02-26T04:46:16;96397.34;;;9.68
27826;BMP280;15077;49.704;9.908;2024-02-26T04:48:41;96397.25;;;9.69
27826;BMP280;15077;49.704;9.908;2024-02-26T04:51:07;96396.31;;;9.70
27826;BMP280;15077;49.704;9.908;2024-02-26T04:53:33;96408.97;;;9.70
27826;BMP280;15077;49.704;9.908;2024-02-26T04:55:58;96418.28;;;9.70
27826;BMP280;15077;49.704;9.908;2024-02-26T04:58:24;96416.75;;;9.67
27826;BMP280;15077;49.704;9.908;2024-02-26T05:00:50;96419.28;;;9.67
27826;BMP280;15077;49.704;9.908;2024-02-26T05:03:15;96422.72;;;9.66
27826;BMP280;15077;49.704;9.908;2024-02-26T05:05:43;96423.44;;;9.68
27826;BMP280;15077;49.704;9.908;2024-02-26T05:08:08;96420.13;;;9.68
27826;BMP280;15077;49.704;9.908;2024-02-26T05:10:34;96423.44;;;9.68
27826;BMP280;15077;49.704;9.908;2024-02-26T05:13:07;96430.03;;;9.71
27826;BMP280;15077;49.704;9.908;2024-02-26T05:15:33;96421.53;;;9.72
27826;BMP280;15077;49.704;9.908;2024-02-26T05:17:58;96430.75;;;9.73
27826;BMP280;15077;49.704;9.908;2024-02-26T05:20:25;96431.44;;;9.75
27826;BMP280;15077;49.704;9.908;2024-02-26T05:22:50;96433.06;;;9.76
27826;BMP280;15077;49.704;9.908;2024-02-26T05:25:16;96423.75;;;9.76
27826;BMP280;15077;49.704;9.908;2024-02-26T05:27:43;96418.50;;;9.79
27826;BMP280;15077;49.704;9.908;2024-02-26T05:30:09;96424.50;;;9.78
27826;BMP280;15077;49.704;9.908;2024-02-26T05:32:35;96420.94;;;9.81
27826;BMP280;15077;49.704;9.908;2024-02-26T05:35:01;96423.47;;;9.81
27826;BMP280;15077;49.704;9.908;2024-02-26T05:37:29;96425.09;;;9.82
27826;BMP280;15077;49.704;9.908;2024-02-26T05:39:55;96422.66;;;9.80
27826;BMP280;15077;49.704;9.908;2024-02-26T05:42:21;96427.63;;;9.82
27826;BMP280;15077;49.704;9.908;2024-02-26T05:44:46;96428.44;;;9.82
27826;BMP280;15077;49.704;9.908;2024-02-26T05:47:12;96425.81;;;9.84
27826;BMP280;15077;49.704;9.908;2024-02-26T05:49:39;96424.09;;;9.84
27826;BMP280;15077;49.704;9.908;2024-02-26T05:52:05;96424.09;;;9.84
27826;BMP280;15077;49.704;9.908;2024-02-26T05:54:31;96436.66;;;9.86
27826;BMP280;15077;49.704;9.908;2024-02-26T05:56:57;96439.19;;;9.86
27826;BMP280;15077;49.704;9.908;2024-02-26T05:59:23;96435.81;;;9.85
27826;BMP280;15077;49.704;9.908;2024-02-26T06:01:49;96438.34;;;9.85
27826;BMP280;15077;49.704;9.908;2024-02-26T06:04:15;96439.97;;;9.86
27826;BMP280;15077;49.704;9.908;2024-02-26T06:06:40;96437.47;;;9.86
27826;BMP280;15077;49.704;9.908;2024-02-26T06:09:06;96440.69;;;9.88
27826;BMP280;15077;49.704;9.908;2024-02-26T06:11:31;96444.84;;;9.89
27826;BMP280;15077;49.704;9.908;2024-02-26T06:13:57;96437.25;;;9.89
27826;BMP280;15077;49.704;9.908;2024-02-26T06:16:23;96448.81;;;9.93
27826;BMP280;15077;49.704;9.908;2024-02-26T06:18:48;96452.97;;;9.94
27826;BMP280;15077;49.704;9.908;2024-02-26T06:21:14;96453.88;;;9.93
27826;BMP280;15077;49.704;9.908;2024-02-26T06:23:39;96458.03;;;9.94
27826;BMP280;15077;49.704;9.908;2024-02-26T06:26:05;96462.22;;;9.95
27826;BMP280;15077;49.704;9.908;2024-02-26T06:28:31;96472.31;;;9.95
27826;BMP280;15077;49.704;9.908;2024-02-26T06:30:59;96473.03;;;9.97
27826;BMP280;15077;49.704;9.908;2024-02-26T06:33:25;96468.81;;;9.98
27826;BMP280;15077;49.704;9.908;2024-02-26T06:35:50;96474.66;;;9.98
27826;BMP280;15077;49.704;9.908;2024-02-26T06:38:16;96477.91;;;10.00
27826;BMP280;15077;49.704;9.908;2024-02-26T06:40:44;96488.03;;;10.00
27826;BMP280;15077;49.704;9.908;2024-02-26T06:43:10;96482.06;;;10.01
27826;BMP280;15077;49.704;9.908;2024-02-26T06:45:35;96479.53;;;10.01
27826;BMP280;15077;49.704;9.908;2024-02-26T06:48:01;96474.47;;;10.01
27826;BMP280;15077;49.704;9.908;2024-02-26T06:50:27;96487.03;;;10.03
27826;BMP280;15077;49.704;9.908;2024-02-26T06:52:53;96486.94;;;10.04
27826;BMP280;15077;49.704;9.908;2024-02-26T06:55:19;96489.47;;;10.04
27826;BMP280;15077;49.704;9.908;2024-02-26T06:57:45;96496.84;;;10.07
27826;BMP280;15077;49.704;9.908;2024-02-26T07:00:11;96495.97;;;10.08
27826;BMP280;15077;49.704;9.908;2024-02-26T07:02:40;96500.00;;;10.11
27826;BMP280;15077;49.704;9.908;2024-02-26T07:05:06;96502.44;;;10.12
27826;BMP280;15077;49.704;9.908;2024-02-26T07:07:32;96507.41;;;10.14
27826;BMP280;15077;49.704;9.908;2024-02-26T07:09:58;96503.06;;;10.16
27826;BMP280;15077;49.704;9.908;2024-02-26T07:12:23;96509.66;;;10.18
27826;BMP280;15077;49.704;9.908;2024-02-26T07:14:49;96501.03;;;10.20
27826;BMP280;15077;49.704;9.908;2024-02-26T07:17:16;96502.78;;;10.20
27826;BMP280;15077;49.704;9.908;2024-02-26T07:19:42;96506.75;;;10.24
27826;BMP280;15077;49.704;9.908;2024-02-26T07:22:08;96513.41;;;10.25
27826;BMP280;15077;49.704;9.908;2024-02-26T07:24:33;96509.06;;;10.27
27826;BMP280;15077;49.704;9.908;2024-02-26T07:26:59;96505.72;;;10.26
27826;BMP280;15077;49.704;9.908;2024-02-26T07:29:24;96514.03;;;10.28
27826;BMP280;15077;49.704;9.908;2024-02-26T07:31:50;96514.84;;;10.29
27826;BMP280;15077;49.704;9.908;2024-02-26T07:34:16;96519.72;;;10.32
27826;BMP280;15077;49.704;9.908;2024-02-26T07:36:41;96516.28;;;10.33
27826;BMP280;15077;49.704;9.908;2024-02-26T07:39:07;96514.44;;;10.35
27826;BMP280;15077;49.704;9.908;2024-02-26T07:41:32;96522.75;;;10.37
27826;BMP280;15077;49.704;9.908;2024-02-26T07:43:58;96524.38;;;10.38
27826;BMP280;15077;49.704;9.908;2024-02-26T07:46:24;96525.19;;;10.38
27826;BMP280;15077;49.704;9.908;2024-02-26T07:48:50;96530.16;;;10.40
27826;BMP280;15077;49.704;9.908;2024-02-26T07:51:15;96538.47;;;10.42
27826;BMP280;15077;49.704;9.908;2024-02-26T07:53:41;96536.75;;;10.42
27826;BMP280;15077;49.704;9.908;2024-02-26T07:56:07;96537.44;;;10.44
27826;BMP280;15077;49.704;9.908;2024-02-26T07:58:33;96530.69;;;10.45
27826;BMP280;15077;49.704;9.908;2024-02-26T08:00:59;96528.84;;;10.47
27826;BMP280;15077;49.704;9.908;2024-02-26T08:03:24;96524.50;;;10.49
27826;BMP280;15077;49.704;9.908;2024-02-26T08:05:51;96523.38;;;10.53
27826;BMP280;15077;49.704;9.908;2024-02-26T08:08:16;96532.53;;;10.55
27826;BMP280;15077;49.704;9.908;2024-02-26T08:10:42;96549.13;;;10.59
27826;BMP280;15077;49.704;9.908;2024-02-26T08:13:08;96565.84;;;10.62
27826;BMP280;15077;49.704;9.908;2024-02-26T08:15:35;96578.53;;;10.62
27826;BMP280;15077;49.704;9.908;2024-02-26T08:18:01;96555.53;;;10.64
27826;BMP280;15077;49.704;9.908;2024-02-26T08:20:30;96558.91;;;10.65
27826;BMP280;15077;49.704;9.908;2024-02-26T08:22:56;96559.50;;;10.68
27826;BMP280;15077;49.704;9.908;2024-02-26T08:25:22;96555.13;;;10.70
27826;BMP280;15077;49.704;9.908;2024-02-26T08:27:48;96552.41;;;10.73
27826;BMP280;15077;49.704;9.908;2024-02-26T08:30:15;96551.28;;;10.77
27826;BMP280;15077;49.704;9.908;2024-02-26T08:32:47;96558.69;;;10.80
27826;BMP280;15077;49.704;9.908;2024-02-26T08:35:12;96570.25;;;10.84
27826;BMP280;15077;49.704;9.908;2024-02-26T08:37:38;96562.56;;;10.86
27826;BMP280;15077;49.704;9.908;2024-02-26T08:40:05;96565.00;;;10.87
27826;BMP280;15077;49.704;9.908;2024-02-26T08:42:31;96563.25;;;10.88
27826;BMP280;15077;49.704;9.908;2024-02-26T08:44:57;96551.59;;;10.85
27826;BMP280;15077;49.704;9.908;2024-02-26T08:47:25;96540.75;;;10.83
27826;BMP280;15077;49.704;9.908;2024-02-26T08:49:51;96534.25;;;10.79
27826;BMP280;15077;49.704;9.908;2024-02-26T08:52:17;96528.50;;;10.77
27826;BMP280;15077;49.704;9.908;2024-02-26T08:54:42;96528.69;;;10.74
27826;BMP280;15077;49.704;9.908;2024-02-26T08:57:08;96532.13;;;10.73
27826;BMP280;15077;49.704;9.908;2024-02-26T08:59:34;96537.19;;;10.73
27826;BMP280;15077;49.704;9.908;2024-02-26T09:01:59;96548.25;;;10.72
27826;BMP280;15077;49.704;9.908;2024-02-26T09:04:25;96544.78;;;10.73
27826;BMP280;15077;49.704;9.908;2024-02-26T09:06:51;96547.13;;;10.76
27826;BMP280;15077;49.704;9.908;2024-02-26T09:09:17;96548.56;;;10.80
27826;BMP280;15077;49.704;9.908;2024-02-26T09:11:43;96545.81;;;10.83
27826;BMP280;15077;49.704;9.908;2024-02-26T09:14:08;96554.66;;;10.90
27826;BMP280;15077;49.704;9.908;2024-02-26T09:16:34;96545.03;;;10.95
27826;BMP280;15077;49.704;9.908;2024-02-26T09:19:00;96552.22;;;11.01
27826;BMP280;15077;49.704;9.908;2024-02-26T09:21:25;96553.44;;;11.08
27826;BMP280;15077;49.704;9.908;2024-02-26T09:23:52;96549.81;;;11.12
27826;BMP280;15077;49.704;9.908;2024-02-26T09:26:18;96557.00;;;11.18
27826;BMP280;15077;49.704;9.908;2024-02-26T09:28:44;96543.19;;;11.22
27826;BMP280;15077;49.704;9.908;2024-02-26T09:31:10;96548.66;;;11.28
27826;BMP280;15077;49.704;9.908;2024-02-26T09:33:36;96548.25;;;11.34
27826;BMP280;15077;49.704;9.908;2024-02-26T09:36:02;96566.59;;;11.38
27826;BMP280;15077;49.704;9.908;2024-02-26T09:38:28;96562.03;;;11.43
27826;BMP280;15077;49.704;9.908;2024-02-26T09:40:58;96560.91;;;11.47
27826;BMP280;15077;49.704;9.908;2024-02-26T09:43:26;96567.34;;;11.52
27826;BMP280;15077;49.704;9.908;2024-02-26T09:45:54;96568.66;;;11.58
27826;BMP280;15077;49.704;9.908;2024-02-26T09:48:21;96569.03;;;11.64
27826;BMP280;15077;49.704;9.908;2024-02-26T09:50:48;96568.84;;;11.67
27826;BMP280;15077;49.704;9.908;2024-02-26T09:53:14;96582.94;;;11.71
27826;BMP280;15077;49.704;9.908;2024-02-26T09:55:40;96586.06;;;11.74
27826;BMP280;15077;49.704;9.908;2024-02-26T09:58:06;96577.13;;;11.81
27826;BMP280;15077;49.704;9.908;2024-02-26T10:00:37;96596.19;;;11.87
27826;BMP280;15077;49.704;9.908;2024-02-26T10:03:09;96592.53;;;11.91
27826;BMP280;15077;49.704;9.908;2024-02-26T10:05:37;96595.44;;;11.97
27826;BMP280;15077;49.704;9.908;2024-02-26T10:08:04;96595.03;;;12.03
27826;BMP280;15077;49.704;9.908;2024-02-26T10:10:30;96597.75;;;12.12
27826;BMP280;15077;49.704;9.908;2024-02-26T10:12:58;96593.13;;;12.17
27826;BMP280;15077;49.704;9.908;2024-02-26T10:15:24;96591.59;;;12.27
27826;BMP280;15077;49.704;9.908;2024-02-26T10:17:51;96597.03;;;12.34
27826;BMP280;15077;49.704;9.908;2024-02-26T10:20:17;96599.13;;;12.40
27826;BMP280;15077;49.704;9.908;2024-02-26T10:22:44;96603.72;;;12.47
27826;BMP280;15077;49.704;9.908;2024-02-26T10:25:10;96604.28;;;12.51
27826;BMP280;15077;49.704;9.908;2024-02-26T10:27:36;96589.50;;;12.56
27826;BMP280;15077;49.704;9.908;2024-02-26T10:30:16;96599.34;;;12.60
27826;BMP280;15077;49.704;9.908;2024-02-26T10:32:43;96599.97;;;12.63
27826;BMP280;15077;49.704;9.908;2024-02-26T10:35:09;96596.97;;;12.69
27826;BMP280;15077;49.704;9.908;2024-02-26T10:37:35;96608.31;;;12.76
27826;BMP280;15077;49.704;9.908;2024-02-26T10:40:01;96609.53;;;12.83
27826;BMP280;15077;49.704;9.908;2024-02-26T10:42:27;96607.88;;;12.82
27826;BMP280;15077;49.704;9.908;2024-02-26T10:44:52;96616.34;;;12.83
27826;BMP280;15077;49.704;9.908;2024-02-26T10:47:18;96623.97;;;12.83
27826;BMP280;15077;49.704;9.908;2024-02-26T10:49:46;96620.38;;;12.85
27826;BMP280;15077;49.704;9.908;2024-02-26T10:52:13;96620.38;;;12.85
27826;BMP280;15077;49.704;9.908;2024-02-26T10:54:41;96622.94;;;12.85
27826;BMP280;15077;49.704;9.908;2024-02-26T10:57:11;96617.72;;;12.87
27826;BMP280;15077;49.704;9.908;2024-02-26T10:59:37;96612.66;;;12.87
27826;BMP280;15077;49.704;9.908;2024-02-26T11:02:05;96623.66;;;12.87
27826;BMP280;15077;49.704;9.908;2024-02-26T11:04:31;96610.00;;;12.88
27826;BMP280;15077;49.704;9.908;2024-02-26T11:06:57;96613.47;;;12.87
27826;BMP280;15077;49.704;9.908;2024-02-26T11:09:24;96618.34;;;12.90
27826;BMP280;15077;49.704;9.908;2024-02-26T11:11:51;96614.88;;;12.91
27826;BMP280;15077;49.704;9.908;2024-02-26T11:14:20;96613.94;;;12.92
27826;BMP280;15077;49.704;9.908;2024-02-26T11:16:47;96612.13;;;12.94
27826;BMP280;15077;49.704;9.908;2024-02-26T11:19:15;96610.97;;;12.98
27826;BMP280;15077;49.704;9.908;2024-02-26T11:21:41;96601.97;;;13.05
27826;BMP280;15077;49.704;9.908;2024-02-26T11:24:11;96610.56;;;13.15
27826;BMP280;15077;49.704;9.908;2024-02-26T11:26:43;96618.41;;;13.23
27826;BMP280;15077;49.704;9.908;2024-02-26T11:29:12;96612.88;;;13.29
27826;BMP280;15077;49.704;9.908;2024-02-26T11:31:39;96612.41;;;13.35
27826;BMP280;15077;49.704;9.908;2024-02-26T11:34:07;96615.44;;;13.40
27826;BMP280;15077;49.704;9.908;2024-02-26T11:36:33;96612.69;;;13.43
27826;BMP280;15077;49.704;9.908;2024-02-26T11:38:58;96611.50;;;13.47
27826;BMP280;15077;49.704;9.908;2024-02-26T11:41:25;96606.19;;;13.50
27826;BMP280;15077;49.704;9.908;2024-02-26T11:43:51;96611.75;;;13.55
27826;BMP280;15077;49.704;9.908;2024-02-26T11:46:30;96604.56;;;13.59
27826;BMP280;15077;49.704;9.908;2024-02-26T11:49:01;96613.63;;;13.63
27826;BMP280;15077;49.704;9.908;2024-02-26T11:51:32;96600.66;;;13.66
27826;BMP280;15077;49.704;9.908;2024-02-26T11:53:58;96599.59;;;13.69
27826;BMP280;15077;49.704;9.908;2024-02-26T11:56:24;96599.25;;;13.73
27826;BMP280;15077;49.704;9.908;2024-02-26T11:59:08;96598.66;;;13.81
27826;BMP280;15077;49.704;9.908;2024-02-26T12:01:47;96595.66;;;13.87
27826;BMP280;15077;49.704;9.908;2024-02-26T12:04:18;96600.41;;;13.91
27826;BMP280;15077;49.704;9.908;2024-02-26T12:06:57;96596.44;;;13.98
27826;BMP280;15077;49.704;9.908;2024-02-26T12:09:41;96594.38;;;14.03
27826;BMP280;15077;49.704;9.908;2024-02-26T12:12:17;96593.94;;;14.09
27826;BMP280;15077;49.704;9.908;2024-02-26T12:14:53;96594.38;;;14.14
27826;BMP280;15077;49.704;9.908;2024-02-26T12:17:20;96596.44;;;14.20
27826;BMP280;15077;49.704;9.908;2024-02-26T12:19:46;96606.16;;;14.26
27826;BMP280;15077;49.704;9.908;2024-02-26T12:22:15;96609.28;;;14.29
27826;BMP280;15077;49.704;9.908;2024-02-26T12:24:41;96617.38;;;14.34
27826;BMP280;15077;49.704;9.908;2024-02-26T12:27:07;96624.44;;;14.42
27826;BMP280;15077;49.704;9.908;2024-02-26T12:29:33;96621.41;;;14.48
27826;BMP280;15077;49.704;9.908;2024-02-26T12:31:58;96622.53;;;14.55
27826;BMP280;15077;49.704;9.908;2024-02-26T12:34:24;96612.66;;;14.61
27826;BMP280;15077;49.704;9.908;2024-02-26T12:36:50;96618.06;;;14.67
27826;BMP280;15077;49.704;9.908;2024-02-26T12:39:16;96614.09;;;14.74
27826;BMP280;15077;49.704;9.908;2024-02-26T12:41:42;96616.03;;;14.82
27826;BMP280;15077;49.704;9.908;2024-02-26T12:44:15;96615.69;;;14.86
27826;BMP280;15077;49.704;9.908;2024-02-26T12:46:41;96617.06;;;14.90
27826;BMP280;15077;49.704;9.908;2024-02-26T12:49:07;96618.56;;;14.93
27826;BMP280;15077;49.704;9.908;2024-02-26T12:51:33;96624.22;;;14.96
27826;BMP280;15077;49.704;9.908;2024-02-26T12:53:59;96624.91;;;14.98
27826;BMP280;15077;49.704;9.908;2024-02-26T12:56:25;96625.34;;;15.03
27826;BMP280;15077;49.704;9.908;2024-02-26T12:58:52;96628.56;;;15.05
27826;BMP280;15077;49.704;9.908;2024-02-26T13:01:21;96623.91;;;15.10
27826;BMP280;15077;49.704;9.908;2024-02-26T13:03:48;96626.19;;;15.13
27826;BMP280;15077;49.704;9.908;2024-02-26T13:06:14;96622.59;;;15.15
27826;BMP280;15077;49.704;9.908;2024-02-26T13:08:40;96628.28;;;15.19
27826;BMP280;15077;49.704;9.908;2024-02-26T13:11:06;96626.19;;;15.24
27826;BMP280;15077;49.704;9.908;2024-02-26T13:13:32;96626.50;;;15.30
27826;BMP280;15077;49.704;9.908;2024-02-26T13:16:02;96626.13;;;15.35
27826;BMP280;15077;49.704;9.908;2024-02-26T13:18:29;96633.38;;;15.39
27826;BMP280;15077;49.704;9.908;2024-02-26T13:21:15;96630.22;;;15.47
27826;BMP280;15077;49.704;9.908;2024-02-26T13:23:42;96638.88;;;15.55
27826;BMP280;15077;49.704;9.908;2024-02-26T13:26:09;96642.66;;;15.60
27826;BMP280;15077;49.704;9.908;2024-02-26T13:28:37;96645.38;;;15.68
27826;BMP280;15077;49.704;9.908;2024-02-26T13:31:03;96648.13;;;15.76
27826;BMP280;15077;49.704;9.908;2024-02-26T13:33:30;96649.09;;;15.85
27826;BMP280;15077;49.704;9.908;2024-02-26T13:35:58;96645.22;;;15.90
27826;BMP280;15077;49.704;9.908;2024-02-26T13:38:24;96645.75;;;15.94
27826;BMP280;15077;49.704;9.908;2024-02-26T13:40:51;96656.56;;;15.97
27826;BMP280;15077;49.704;9.908;2024-02-26T13:43:18;96653.03;;;15.98
27826;BMP280;15077;49.704;9.908;2024-02-26T13:45:43;96653.88;;;15.99
27826;BMP280;15077;49.704;9.908;2024-02-26T13:48:10;96652.25;;;15.98
27826;BMP280;15077;49.704;9.908;2024-02-26T13:50:43;96659.78;;;15.99
27826;BMP280;15077;49.704;9.908;2024-02-26T13:53:09;96662.31;;;15.99
27826;BMP280;15077;49.704;9.908;2024-02-26T13:55:35;96673.47;;;15.98
27826;BMP280;15077;49.704;9.908;2024-02-26T13:58:01;96668.38;;;15.98
27826;BMP280;15077;49.704;9.908;2024-02-26T14:00:28;96666.91;;;15.96
27826;BMP280;15077;49.704;9.908;2024-02-26T14:02:58;96665.41;;;15.93
27826;BMP280;15077;49.704;9.908;2024-02-26T14:05:24;96667.28;;;15.91
27826;BMP280;15077;49.704;9.908;2024-02-26T14:07:49;96663.91;;;15.91
27826;BMP280;15077;49.704;9.908;2024-02-26T14:10:15;96677.50;;;15.91